createdAt,value
2023-07-14T00:00:15.951Z,1.90
2023-07-14T00:02:44.962Z,1.63
2023-07-14T00:05:19.647Z,1.90
2023-07-14T00:07:49.524Z,1.80
2023-07-14T00:10:20.144Z,1.75
2023-07-14T00:12:48.138Z,1.83
2023-07-14T00:15:16.030Z,1.98
2023-07-14T00:17:44.066Z,1.80
2023-07-14T00:20:24.970Z,2.00
2023-07-14T00:22:53.299Z,1.60
2023-07-14T00:25:21.891Z,1.77
2023-07-14T00:27:49.756Z,2.05
2023-07-14T00:30:20.164Z,1.88
2023-07-14T00:32:48.312Z,2.05
2023-07-14T00:35:25.362Z,1.70
2023-07-14T00:37:53.814Z,2.10
2023-07-14T00:40:22.851Z,1.80
2023-07-14T00:42:55.058Z,1.70
2023-07-14T00:45:24.412Z,2.03
2023-07-14T00:47:55.178Z,1.88
2023-07-14T00:50:28.524Z,1.90
2023-07-14T00:52:56.384Z,1.95
2023-07-14T00:55:33.163Z,1.50
2023-07-14T00:58:01.000Z,1.60
2023-07-14T01:00:31.323Z,2.25
2023-07-14T01:02:59.541Z,1.73
2023-07-14T01:05:28.878Z,1.80
2023-07-14T01:07:56.850Z,1.80
2023-07-14T01:10:26.376Z,1.75
2023-07-14T01:12:55.573Z,1.73
2023-07-14T01:15:23.504Z,1.48
2023-07-14T01:17:52.908Z,1.75
2023-07-14T01:20:21.513Z,1.98
2023-07-14T01:22:57.129Z,2.03
2023-07-14T01:25:28.292Z,2.17
2023-07-14T01:27:57.569Z,2.22
2023-07-14T01:30:25.839Z,1.85
2023-07-14T01:32:53.914Z,1.65
2023-07-14T01:35:25.287Z,1.98
2023-07-14T01:37:53.155Z,1.70
2023-07-14T01:40:22.131Z,1.77
2023-07-14T01:42:51.769Z,1.75
2023-07-14T01:45:21.062Z,1.92
2023-07-14T01:47:51.040Z,1.73
2023-07-14T01:50:20.220Z,1.73
2023-07-14T01:52:48.229Z,1.52
2023-07-14T01:55:16.804Z,1.85
2023-07-14T01:57:44.690Z,1.52
2023-07-14T02:00:13.673Z,1.55
2023-07-14T02:02:42.983Z,1.90
2023-07-14T02:05:19.870Z,1.45
2023-07-14T02:07:49.021Z,1.70
2023-07-14T02:10:18.000Z,1.70
2023-07-14T02:12:47.799Z,1.60
2023-07-14T02:15:18.567Z,1.42
2023-07-14T02:17:47.878Z,1.52
2023-07-14T02:20:17.846Z,1.48
2023-07-14T02:22:45.791Z,1.60
2023-07-14T02:25:14.472Z,1.42
2023-07-14T02:27:42.334Z,1.70
2023-07-14T02:30:14.050Z,1.35
2023-07-14T02:32:45.361Z,1.90
2023-07-14T02:35:16.551Z,1.75
2023-07-14T02:38:04.373Z,1.33
2023-07-14T02:40:36.634Z,1.85
2023-07-14T02:43:08.365Z,1.70
2023-07-14T02:45:37.999Z,2.00
2023-07-14T02:48:06.844Z,2.00
2023-07-14T02:50:36.040Z,1.77
2023-07-14T02:53:03.900Z,2.17
2023-07-14T02:55:31.768Z,1.67
2023-07-14T02:57:59.640Z,1.80
2023-07-14T03:00:27.496Z,1.88
2023-07-14T03:02:55.505Z,1.83
2023-07-14T03:05:23.580Z,2.03
2023-07-14T03:07:52.802Z,1.83
2023-07-14T03:10:21.365Z,1.90
2023-07-14T03:12:49.245Z,1.75
2023-07-14T03:15:17.278Z,1.88
2023-07-14T03:17:45.201Z,1.80
2023-07-14T03:20:15.204Z,2.03
2023-07-14T03:22:43.457Z,1.85
2023-07-14T03:25:12.895Z,1.70
2023-07-14T03:27:41.841Z,1.83
2023-07-14T03:30:10.103Z,1.67
2023-07-14T03:32:38.002Z,1.88
2023-07-14T03:35:06.598Z,1.73
2023-07-14T03:37:34.492Z,1.67
2023-07-14T03:40:02.467Z,1.55
2023-07-14T03:42:31.660Z,1.67
2023-07-14T03:44:59.544Z,1.75
2023-07-14T03:47:27.876Z,1.45
2023-07-14T03:49:55.802Z,1.70
2023-07-14T03:52:23.653Z,1.58
2023-07-14T03:54:51.658Z,1.50
2023-07-14T03:57:19.496Z,1.67
2023-07-14T03:59:48.707Z,1.77
2023-07-14T04:02:16.562Z,1.70
2023-07-14T04:04:44.417Z,1.73
2023-07-14T04:07:12.464Z,1.50
2023-07-14T04:09:40.343Z,1.67
2023-07-14T04:12:09.495Z,1.90
2023-07-14T04:14:37.365Z,1.60
2023-07-14T04:17:06.657Z,1.80
2023-07-14T04:19:34.543Z,1.80
2023-07-14T04:22:02.447Z,1.38
2023-07-14T04:24:30.272Z,1.38
2023-07-14T04:26:58.074Z,1.85
2023-07-14T04:29:24.936Z,1.95
2023-07-14T04:31:52.828Z,1.85
2023-07-14T04:34:23.158Z,1.75
2023-07-14T04:36:51.015Z,1.50
2023-07-14T04:39:18.893Z,1.63
2023-07-14T04:41:46.752Z,1.92
2023-07-14T04:44:16.090Z,1.77
2023-07-14T04:46:44.206Z,2.08
2023-07-14T04:49:12.146Z,2.38
2023-07-14T04:51:41.370Z,1.95
2023-07-14T04:54:09.224Z,2.15
2023-07-14T04:56:37.415Z,1.55
2023-07-14T04:59:06.463Z,2.15
2023-07-14T05:01:34.350Z,2.05
2023-07-14T05:04:02.318Z,1.77
2023-07-14T05:06:30.176Z,1.73
2023-07-14T05:08:59.971Z,1.63
2023-07-14T05:11:27.978Z,2.00
2023-07-14T05:13:56.058Z,1.67
2023-07-14T05:16:23.988Z,2.10
2023-07-14T05:18:51.864Z,1.73
2023-07-14T05:21:19.740Z,1.40
2023-07-14T05:23:47.681Z,1.58
2023-07-14T05:26:17.088Z,1.23
2023-07-14T05:28:44.969Z,1.95
2023-07-14T05:31:13.777Z,1.80
2023-07-14T05:33:41.998Z,1.90
2023-07-14T05:36:09.894Z,2.08
2023-07-14T05:38:37.794Z,1.92
2023-07-14T05:41:05.888Z,1.70
2023-07-14T05:43:35.275Z,1.70
2023-07-14T05:46:03.098Z,2.08
2023-07-14T05:48:30.946Z,1.70
2023-07-14T05:50:59.365Z,1.48
2023-07-14T05:53:28.086Z,1.80
2023-07-14T05:55:58.015Z,1.98
2023-07-14T05:58:25.960Z,2.10
2023-07-14T06:00:56.725Z,1.95
2023-07-14T06:03:24.757Z,1.83
2023-07-14T06:05:52.740Z,2.05
2023-07-14T06:08:23.656Z,1.60
2023-07-14T06:10:52.668Z,2.10
2023-07-14T06:13:20.689Z,1.50
2023-07-14T06:15:50.029Z,1.83
2023-07-14T06:18:19.307Z,1.77
2023-07-14T06:20:47.302Z,1.80
2023-07-14T06:23:15.465Z,1.73
2023-07-14T06:25:43.612Z,2.10
2023-07-14T06:28:11.765Z,2.00
2023-07-14T06:30:39.860Z,2.08
2023-07-14T06:33:09.230Z,2.22
2023-07-14T06:35:38.946Z,2.03
2023-07-14T06:38:07.410Z,2.38
2023-07-14T06:40:35.355Z,1.73
2023-07-14T06:43:03.543Z,1.80
2023-07-14T06:45:31.396Z,1.88
2023-07-14T06:47:59.302Z,2.03
2023-07-14T06:50:27.252Z,2.03
2023-07-14T06:52:56.837Z,2.05
2023-07-14T06:55:24.735Z,1.80
2023-07-14T06:57:53.162Z,1.85
2023-07-14T07:00:22.215Z,2.38
2023-07-14T07:02:52.356Z,1.77
2023-07-14T07:05:22.386Z,2.03
2023-07-14T07:07:50.919Z,2.20
2023-07-14T07:10:20.124Z,1.83
2023-07-14T07:12:48.044Z,1.63
2023-07-14T07:15:15.977Z,1.85
2023-07-14T07:17:44.472Z,1.60
2023-07-14T07:20:12.526Z,1.65
2023-07-14T07:22:43.288Z,1.90
2023-07-14T07:25:11.233Z,2.08
2023-07-14T07:27:40.462Z,1.67
2023-07-14T07:30:10.223Z,1.67
2023-07-14T07:32:38.262Z,1.80
2023-07-14T07:35:07.614Z,1.75
2023-07-14T07:37:35.543Z,1.85
2023-07-14T07:40:04.329Z,1.77
2023-07-14T07:42:32.360Z,1.38
2023-07-14T07:45:01.517Z,1.52
2023-07-14T07:47:29.416Z,1.48
2023-07-14T07:49:57.653Z,1.48
2023-07-14T07:52:25.580Z,1.65
2023-07-14T07:54:53.569Z,1.48
2023-07-14T07:57:21.504Z,1.27
2023-07-14T07:59:50.176Z,1.42
2023-07-14T08:02:19.573Z,1.70
2023-07-14T08:04:50.474Z,1.20
2023-07-14T08:07:18.622Z,1.70
2023-07-14T08:09:46.617Z,1.70
2023-07-14T08:12:14.962Z,1.48
2023-07-14T08:14:52.289Z,1.25
2023-07-14T08:17:24.400Z,1.58
2023-07-14T08:19:52.681Z,1.17
2023-07-14T08:22:23.340Z,1.50
2023-07-14T08:24:51.310Z,1.30
2023-07-14T08:27:19.188Z,1.70
2023-07-14T08:29:47.175Z,1.48
2023-07-14T08:32:17.034Z,1.27
2023-07-14T08:34:46.326Z,1.52
2023-07-14T08:37:15.660Z,1.50
2023-07-14T08:39:44.300Z,1.48
2023-07-14T08:42:21.603Z,1.30
2023-07-14T08:44:56.700Z,1.50
2023-07-14T08:47:26.192Z,1.55
2023-07-14T08:49:58.362Z,1.80
2023-07-14T08:52:28.025Z,1.63
2023-07-14T08:55:00.568Z,1.40
2023-07-14T08:57:28.416Z,1.60
2023-07-14T08:59:57.976Z,1.65
2023-07-14T09:02:31.156Z,1.45
2023-07-14T09:05:02.782Z,1.90
2023-07-14T09:07:30.854Z,1.40
2023-07-14T09:09:58.664Z,1.55
2023-07-14T09:12:29.978Z,1.65
2023-07-14T09:14:59.513Z,1.50
2023-07-14T09:17:34.661Z,1.60
2023-07-14T09:20:27.387Z,1.75
2023-07-14T09:23:00.036Z,1.60
2023-07-14T09:25:31.025Z,7.20
2023-07-14T09:27:58.875Z,2.63
2023-07-14T09:30:27.988Z,2.22
2023-07-14T09:32:57.252Z,1.20
2023-07-14T09:35:29.499Z,1.52
2023-07-14T09:37:59.646Z,1.48
2023-07-14T09:40:28.334Z,1.73
2023-07-14T09:42:57.150Z,1.50
2023-07-14T09:45:26.352Z,1.55
2023-07-14T09:47:57.995Z,1.70
2023-07-14T09:50:27.624Z,1.42
2023-07-14T09:52:57.108Z,1.83
2023-07-14T09:55:25.138Z,1.38
2023-07-14T09:58:09.966Z,1.35
2023-07-14T10:00:41.141Z,1.55
2023-07-14T10:03:10.325Z,1.60
2023-07-14T10:05:49.703Z,1.58
2023-07-14T10:08:30.179Z,1.42
2023-07-14T10:10:59.455Z,1.55
2023-07-14T10:13:28.680Z,1.80
2023-07-14T10:15:59.013Z,1.30
2023-07-14T10:18:28.608Z,1.40
2023-07-14T10:21:03.049Z,1.33
2023-07-14T10:23:31.023Z,1.48
2023-07-14T10:25:58.859Z,1.25
2023-07-14T10:28:30.306Z,1.55
2023-07-14T10:31:05.264Z,1.30
2023-07-14T10:33:40.422Z,1.27
2023-07-14T10:36:11.543Z,1.10
2023-07-14T10:38:47.069Z,1.05
2023-07-14T10:41:17.271Z,1.35
2023-07-14T10:43:48.751Z,0.90
2023-07-14T10:46:18.475Z,1.30
2023-07-14T10:48:48.729Z,1.20
2023-07-14T10:51:27.647Z,1.23
2023-07-14T10:53:58.981Z,1.02
2023-07-14T10:56:28.967Z,1.15
2023-07-14T10:58:58.379Z,1.70
2023-07-14T11:01:31.617Z,1.20
2023-07-14T11:04:02.095Z,1.13
2023-07-14T11:06:31.490Z,1.40
2023-07-14T11:08:59.511Z,1.20
2023-07-14T11:11:28.820Z,1.20
2023-07-14T11:14:04.044Z,1.33
2023-07-14T11:16:34.986Z,1.30
2023-07-14T11:19:07.862Z,1.48
2023-07-14T11:21:41.653Z,1.10
2023-07-14T11:24:17.335Z,1.30
2023-07-14T11:26:56.568Z,1.13
2023-07-14T11:29:24.529Z,1.25
2023-07-14T11:31:53.829Z,1.70
2023-07-14T11:34:26.221Z,1.48
2023-07-14T11:37:00.970Z,1.30
2023-07-14T11:39:41.049Z,1.40
2023-07-14T11:42:17.542Z,1.52
2023-07-14T11:44:45.537Z,1.67
2023-07-14T11:47:13.650Z,1.30
2023-07-14T11:49:41.783Z,1.52
2023-07-14T11:52:15.327Z,1.50
2023-07-14T11:54:43.977Z,1.60
2023-07-14T11:57:17.836Z,1.33
2023-07-14T11:59:57.787Z,1.55
2023-07-14T12:02:39.810Z,1.17
2023-07-14T12:05:33.142Z,1.50
2023-07-14T12:08:24.787Z,0.98
2023-07-14T12:10:52.686Z,1.13
2023-07-14T12:13:28.615Z,1.08
2023-07-14T12:16:14.284Z,1.67
2023-07-14T12:19:00.234Z,1.33
2023-07-14T12:21:36.625Z,1.50
2023-07-14T12:24:16.217Z,1.60
2023-07-14T12:26:47.348Z,1.23
2023-07-14T12:29:17.963Z,1.10
2023-07-14T12:31:50.556Z,1.33
2023-07-14T12:34:18.472Z,1.40
2023-07-14T12:36:46.561Z,1.63
2023-07-14T12:39:15.764Z,1.30
2023-07-14T12:41:49.393Z,1.30
2023-07-14T12:44:23.162Z,1.35
2023-07-14T12:46:51.191Z,1.25
2023-07-14T12:49:21.697Z,1.33
2023-07-14T12:51:49.552Z,1.30
2023-07-14T12:54:19.867Z,1.20
2023-07-14T12:56:47.713Z,1.08
2023-07-14T12:59:18.776Z,1.30
2023-07-14T13:01:47.521Z,1.38
2023-07-14T13:04:15.871Z,1.15
2023-07-14T13:06:44.092Z,1.40
2023-07-14T13:09:12.734Z,1.67
2023-07-14T13:11:42.191Z,1.35
2023-07-14T13:14:14.225Z,1.55
2023-07-14T13:16:42.202Z,1.40
2023-07-14T13:19:25.048Z,1.48
2023-07-14T13:21:52.912Z,1.58
2023-07-14T13:24:23.685Z,1.85
2023-07-14T13:26:57.178Z,1.45
2023-07-14T13:29:26.103Z,1.25
2023-07-14T13:31:56.262Z,1.30
2023-07-14T13:34:25.676Z,1.38
2023-07-14T13:36:54.047Z,1.48
2023-07-14T13:39:29.644Z,1.52
2023-07-14T13:42:00.389Z,1.08
2023-07-14T13:44:45.837Z,1.27
2023-07-14T13:47:20.214Z,1.23
2023-07-14T13:49:48.380Z,1.40
2023-07-14T13:52:17.347Z,1.70
2023-07-14T13:54:47.984Z,1.38
2023-07-14T13:57:17.193Z,1.45
2023-07-14T13:59:45.805Z,1.42
2023-07-14T14:02:37.359Z,1.50
2023-07-14T14:05:10.162Z,1.20
2023-07-14T14:07:38.055Z,1.42
2023-07-14T14:10:10.559Z,1.63
2023-07-14T14:12:40.130Z,1.63
2023-07-14T14:15:09.130Z,1.80
2023-07-14T14:17:38.395Z,1.75
2023-07-14T14:20:08.975Z,1.55
2023-07-14T14:22:37.548Z,1.33
2023-07-14T14:25:12.874Z,1.40
2023-07-14T14:27:42.245Z,1.52
2023-07-14T14:30:11.187Z,1.60
2023-07-14T14:32:39.440Z,1.67
2023-07-14T14:35:20.684Z,1.75
2023-07-14T14:37:49.563Z,1.55
2023-07-14T14:40:18.303Z,2.20
2023-07-14T14:42:47.581Z,1.60
2023-07-14T14:45:20.955Z,1.48
2023-07-14T14:47:49.117Z,1.40
2023-07-14T14:50:17.140Z,1.60
2023-07-14T14:52:45.403Z,1.33
2023-07-14T14:55:19.039Z,1.58
2023-07-14T14:57:49.171Z,1.77
2023-07-14T15:00:19.149Z,1.90
2023-07-14T15:02:47.777Z,1.65
2023-07-14T15:05:17.882Z,1.42
2023-07-14T15:07:45.946Z,1.67
2023-07-14T15:10:13.899Z,1.40
2023-07-14T15:12:42.214Z,1.38
2023-07-14T15:15:18.535Z,1.58
2023-07-14T15:17:46.635Z,1.85
2023-07-14T15:20:14.668Z,1.70
2023-07-14T15:22:42.588Z,1.92
2023-07-14T15:25:12.393Z,1.80
2023-07-14T15:27:40.535Z,1.98
2023-07-14T15:30:26.369Z,2.03
2023-07-14T15:32:55.380Z,1.95
2023-07-14T15:35:24.533Z,2.20
2023-07-14T15:37:52.819Z,1.90
2023-07-14T15:40:24.491Z,1.70
2023-07-14T15:42:52.628Z,1.73
2023-07-14T15:45:21.468Z,1.75
2023-07-14T15:47:52.288Z,1.45
2023-07-14T15:50:20.869Z,1.65
2023-07-14T15:52:50.087Z,1.75
2023-07-14T15:55:19.271Z,1.58
2023-07-14T15:57:47.565Z,1.20
2023-07-14T16:00:17.109Z,1.63
2023-07-14T16:02:46.732Z,1.42
2023-07-14T16:05:17.191Z,1.58
2023-07-14T16:07:52.536Z,1.40
2023-07-14T16:10:21.594Z,1.20
2023-07-14T16:12:49.533Z,1.13
2023-07-14T16:15:17.878Z,1.27
2023-07-14T16:17:46.058Z,1.58
2023-07-14T16:20:17.729Z,1.27
2023-07-14T16:22:49.806Z,1.40
2023-07-14T16:25:18.917Z,1.40
2023-07-14T16:27:47.119Z,1.40
2023-07-14T16:30:22.752Z,1.50
2023-07-14T16:32:51.902Z,1.50
2023-07-14T16:35:23.625Z,1.40
2023-07-14T16:37:52.195Z,1.40
2023-07-14T16:40:24.236Z,1.60
2023-07-14T16:42:52.536Z,1.40
2023-07-14T16:45:21.743Z,1.25
2023-07-14T16:47:49.741Z,1.20
2023-07-14T16:50:18.270Z,1.65
2023-07-14T16:52:49.229Z,1.60
2023-07-14T16:55:20.351Z,1.48
2023-07-14T16:57:48.232Z,1.63
2023-07-14T17:00:27.577Z,1.90
2023-07-14T17:02:57.512Z,1.60
2023-07-14T17:05:26.562Z,1.63
2023-07-14T17:07:55.737Z,1.95
2023-07-14T17:10:24.482Z,1.33
2023-07-14T17:12:52.384Z,1.65
2023-07-14T17:15:20.350Z,1.52
2023-07-14T17:17:48.452Z,1.70
2023-07-14T17:20:17.308Z,1.50
2023-07-14T17:22:45.320Z,1.67
2023-07-14T17:25:23.167Z,1.63
2023-07-14T17:27:51.240Z,1.83
2023-07-14T17:30:21.173Z,1.90
2023-07-14T17:32:50.453Z,1.65
2023-07-14T17:35:18.494Z,1.30
2023-07-14T17:37:46.816Z,1.27
2023-07-14T17:40:22.661Z,1.42
2023-07-14T17:42:50.621Z,1.48
2023-07-14T17:45:19.459Z,1.48
2023-07-14T17:47:47.460Z,1.70
2023-07-14T17:50:15.501Z,1.73
2023-07-14T17:52:44.544Z,1.60
2023-07-14T17:55:19.828Z,1.08
2023-07-14T17:57:49.965Z,1.50
2023-07-14T18:00:18.494Z,1.35
2023-07-14T18:02:46.534Z,1.23
2023-07-14T18:05:18.513Z,1.60
2023-07-14T18:07:46.547Z,1.40
2023-07-14T18:10:15.048Z,1.33
2023-07-14T18:12:43.029Z,1.30
2023-07-14T18:15:24.759Z,1.50
2023-07-14T18:17:53.654Z,1.70
2023-07-14T18:20:21.669Z,2.95
2023-07-14T18:22:49.838Z,2.60
2023-07-14T18:25:19.127Z,2.63
2023-07-14T18:27:47.179Z,3.22
2023-07-14T18:30:20.899Z,3.45
2023-07-14T18:32:49.012Z,4.55
2023-07-14T18:35:27.055Z,4.63
2023-07-14T18:37:55.303Z,4.38
2023-07-14T18:40:25.488Z,4.13
2023-07-14T18:43:00.025Z,4.45
2023-07-14T18:45:30.386Z,3.78
2023-07-14T18:48:12.658Z,3.05
2023-07-14T18:50:41.501Z,2.88
2023-07-14T18:53:14.662Z,2.78
2023-07-14T18:55:43.318Z,2.55
2023-07-14T18:58:16.473Z,2.92
2023-07-14T19:00:46.859Z,2.72
2023-07-14T19:03:17.807Z,2.50
2023-07-14T19:05:46.705Z,2.40
2023-07-14T19:08:15.318Z,2.35
2023-07-14T19:10:43.412Z,2.78
2023-07-14T19:13:15.570Z,2.53
2023-07-14T19:15:44.885Z,2.20
2023-07-14T19:18:21.575Z,2.03
2023-07-14T19:20:52.138Z,2.03
2023-07-14T19:23:20.161Z,2.30
2023-07-14T19:25:48.077Z,2.10
2023-07-14T19:28:17.686Z,2.30
2023-07-14T19:30:47.562Z,1.63
2023-07-14T19:33:16.659Z,1.73
2023-07-14T19:35:45.226Z,2.30
2023-07-14T19:38:16.095Z,1.80
2023-07-14T19:40:44.054Z,1.83
2023-07-14T19:43:15.291Z,1.92
2023-07-14T19:45:43.617Z,1.73
2023-07-14T19:48:17.126Z,2.05
2023-07-14T19:50:45.341Z,1.42
2023-07-14T19:53:23.284Z,1.50
2023-07-14T19:55:51.360Z,1.77
2023-07-14T19:58:20.321Z,1.52
2023-07-14T20:00:48.223Z,1.42
2023-07-14T20:03:19.474Z,1.35
2023-07-14T20:05:47.749Z,1.45
2023-07-14T20:08:17.783Z,1.60
2023-07-14T20:10:45.808Z,1.85
2023-07-14T20:13:19.815Z,3.40
2023-07-14T20:15:47.940Z,1.88
2023-07-14T20:18:18.797Z,2.00
2023-07-14T20:20:46.924Z,2.03
2023-07-14T20:23:22.265Z,1.70
2023-07-14T20:25:51.946Z,1.90
2023-07-14T20:28:21.695Z,1.92
2023-07-14T20:30:53.224Z,1.50
2023-07-14T20:33:22.888Z,1.58
2023-07-14T20:35:51.390Z,1.55
2023-07-14T20:38:21.452Z,2.30
2023-07-14T20:40:50.286Z,1.65
2023-07-14T20:43:19.454Z,1.60
2023-07-14T20:45:48.205Z,1.92
2023-07-14T20:48:24.366Z,2.08
2023-07-14T20:50:52.756Z,2.20
2023-07-14T20:53:21.542Z,2.38
2023-07-14T20:55:50.086Z,1.98
2023-07-14T20:58:18.812Z,2.45
2023-07-14T21:00:47.992Z,2.30
2023-07-14T21:03:17.521Z,2.13
2023-07-14T21:05:47.340Z,1.98
2023-07-14T21:08:20.155Z,2.00
2023-07-14T21:10:48.527Z,2.03
2023-07-14T21:13:18.945Z,1.70
2023-07-14T21:15:46.957Z,1.85
2023-07-14T21:18:14.933Z,1.73
2023-07-14T21:20:42.918Z,1.83
2023-07-14T21:23:22.248Z,1.88
2023-07-14T21:25:50.205Z,1.85
2023-07-14T21:28:18.152Z,1.83
2023-07-14T21:30:47.756Z,2.13
2023-07-14T21:33:17.938Z,1.50
2023-07-14T21:35:46.018Z,1.92
2023-07-14T21:38:15.049Z,2.10
2023-07-14T21:40:45.254Z,1.70
2023-07-14T21:43:15.950Z,1.67
2023-07-14T21:45:44.071Z,2.20
2023-07-14T21:48:14.398Z,1.70
2023-07-14T21:50:43.510Z,1.73
2023-07-14T21:53:19.590Z,1.88
2023-07-14T21:55:50.247Z,1.73
2023-07-14T21:58:19.024Z,1.90
2023-07-14T22:00:47.515Z,1.75
2023-07-14T22:03:16.817Z,1.70
2023-07-14T22:05:46.125Z,1.77
2023-07-14T22:08:14.816Z,1.70
2023-07-14T22:10:43.830Z,1.60
2023-07-14T22:13:23.632Z,2.03
2023-07-14T22:15:51.817Z,2.28
2023-07-14T22:18:32.138Z,2.17
2023-07-14T22:21:14.055Z,1.98
2023-07-14T22:23:41.930Z,1.92
2023-07-14T22:26:14.193Z,2.20
2023-07-14T22:28:43.749Z,1.90
2023-07-14T22:31:15.917Z,1.77
2023-07-14T22:33:46.472Z,1.90
2023-07-14T22:36:15.203Z,2.08
2023-07-14T22:38:43.627Z,2.25
2023-07-14T22:41:18.584Z,1.85
2023-07-14T22:43:48.039Z,2.20
2023-07-14T22:46:16.176Z,2.03
2023-07-14T22:48:44.220Z,2.10
2023-07-14T22:51:15.909Z,2.20
2023-07-14T22:53:43.830Z,1.77
2023-07-14T22:56:14.008Z,1.98
2023-07-14T22:58:42.714Z,2.00
2023-07-14T23:01:14.985Z,2.22
2023-07-14T23:03:42.975Z,2.22
2023-07-14T23:06:13.111Z,1.92
2023-07-14T23:08:41.326Z,1.92
2023-07-14T23:11:13.163Z,2.20
2023-07-14T23:13:41.104Z,1.95
2023-07-14T23:16:12.746Z,2.47
2023-07-14T23:18:40.853Z,1.85
2023-07-14T23:21:13.699Z,1.88
2023-07-14T23:23:42.972Z,2.20
2023-07-14T23:26:12.039Z,2.40
2023-07-14T23:28:40.143Z,2.05
2023-07-14T23:31:15.394Z,1.77
2023-07-14T23:33:43.391Z,2.55
2023-07-14T23:36:13.269Z,2.10
2023-07-14T23:38:41.857Z,2.40
2023-07-14T23:41:11.039Z,2.25
2023-07-14T23:43:40.544Z,1.60
2023-07-14T23:46:10.492Z,2.03
2023-07-14T23:48:40.770Z,2.00
2023-07-14T23:51:12.436Z,2.30
2023-07-14T23:53:42.436Z,2.40
2023-07-14T23:56:10.526Z,2.20
2023-07-14T23:58:39.312Z,2.72
